Time;durP1;ratioP1;P1;durP2;ratioP2;P2;SDS_P1;SDS_P2;PMS_P1;PMS_P2;Temp;Humidity;BMP_temperature;BMP_pressure;BME280_temperature;BME280_humidity;BME280_pressure;Samples;Min_cycle;Max_cycle;Signal;HPM_P1;HPM_P2
2021/11/19 00:01:58;;;;;;;25.10;14.77;;;153.90;2048.00;;;;;;5053633;28;20455;-57
2021/11/19 00:04:24;;;;;;;20.13;12.07;;;154.00;1971.20;;;;;;5053466;28;20033;-57
2021/11/19 00:06:50;;;;;;;24.27;14.07;;;154.00;1868.80;;;;;;5053662;28;20037;-57
2021/11/19 00:09:16;;;;;;;23.83;13.68;;;154.20;1817.60;;;;;;5053614;28;20029;-58
2021/11/19 00:11:45;;;;;;;25.33;14.60;;;154.00;1817.60;;;;;;5053552;28;20078;-58
2021/11/19 00:14:11;;;;;;;24.20;13.85;;;153.70;1843.20;;;;;;5053686;28;20064;-57
2021/11/19 00:16:40;;;;;;;24.05;14.00;;;153.60;1868.80;;;;;;5057505;28;20033;-58
2021/11/19 00:19:07;;;;;;;21.50;13.45;;;128.90;1868.80;;;;;;5057469;28;20029;-57
2021/11/19 00:21:35;;;;;;;22.25;13.95;;;128.80;1868.80;;;;;;5057525;28;20430;-58
2021/11/19 00:24:03;;;;;;;19.73;12.98;;;128.70;1868.80;;;;;;5057519;28;20025;-58
2021/11/19 00:26:29;;;;;;;20.40;12.65;;;128.50;1894.40;;;;;;5057493;28;20029;-57
2021/11/19 00:28:55;;;;;;;23.92;12.77;;;128.40;1920.00;;;;;;5057428;28;20024;-57
2021/11/19 00:31:23;;;;;;;28.67;15.65;;;128.40;1945.60;;;;;;5057135;28;20027;-57
2021/11/19 00:33:50;;;;;;;165.70;23.40;;;128.50;2124.80;;;;;;5057107;28;20040;-58
2021/11/19 00:36:19;;;;;;;23.90;14.48;;;128.70;2252.80;;;;;;5057232;28;20017;-57
2021/11/19 00:38:46;;;;;;;20.83;12.57;;;153.60;2099.20;;;;;;5057042;28;20021;-58
2021/11/19 00:41:13;;;;;;;19.63;12.55;;;153.80;1996.80;;;;;;5057141;28;20025;-58
2021/11/19 00:43:40;;;;;;;25.63;12.75;;;153.80;1920.00;;;;;;5057089;28;20082;-57
2021/11/19 00:46:08;;;;;;;22.98;13.27;;;153.80;1817.60;;;;;;5056974;28;20078;-57
2021/11/19 00:48:35;;;;;;;20.77;12.35;;;128.90;1843.20;;;;;;5056788;28;20413;-58
2021/11/19 00:51:23;;;;;;;26.15;14.43;;;128.80;1894.40;;;;;;5057065;28;20021;-57
2021/11/19 00:53:51;;;;;;;20.60;13.45;;;128.60;1920.00;;;;;;5056174;28;20390;-58
2021/11/19 00:56:20;;;;;;;20.92;13.57;;;128.60;1894.40;;;;;;5055469;28;20103;-57
2021/11/19 00:58:47;;;;;;;23.23;13.65;;;128.50;1894.40;;;;;;5055569;28;20413;-58
2021/11/19 01:01:20;;;;;;;21.25;13.82;;;128.40;1920.00;;;;;;5056432;28;20109;-57
2021/11/19 01:03:46;;;;;;;23.30;15.73;;;128.30;1920.00;;;;;;5056495;28;20013;-58
2021/11/19 01:06:13;;;;;;;23.88;15.88;;;128.20;1945.60;;;;;;5056790;28;20052;-57
2021/11/19 01:08:39;;;;;;;27.17;15.68;;;128.30;1971.20;;;;;;5056473;28;20108;-58
2021/11/19 01:11:07;;;;;;;41.50;17.58;;;128.50;2048.00;;;;;;5056546;28;20029;-58
2021/11/19 01:13:36;;;;;;;21.83;14.35;;;128.70;2201.60;;;;;;5056462;28;20450;-57
2021/11/19 01:16:11;;;;;;;18.80;12.68;;;153.60;2048.00;;;;;;5056692;28;20055;-59
2021/11/19 01:18:44;;;;;;;19.83;12.13;;;153.60;1971.20;;;;;;5056239;28;20104;-58
2021/11/19 01:21:27;;;;;;;16.75;10.73;;;153.70;1894.40;;;;;;5056356;28;20386;-58
2021/11/19 01:23:53;;;;;;;18.85;11.90;;;153.70;1843.20;;;;;;5056307;28;20028;-58
2021/11/19 01:26:24;;;;;;;18.92;12.35;;;128.80;1868.80;;;;;;5055856;28;20029;-57
2021/11/19 01:28:55;;;;;;;20.35;12.07;;;128.70;1894.40;;;;;;5056271;28;20029;-58
2021/11/19 01:31:25;;;;;;;17.50;11.82;;;128.50;1920.00;;;;;;5056409;28;20039;-58
2021/11/19 01:33:51;;;;;;;19.17;11.52;;;128.40;1920.00;;;;;;5055988;28;20167;-57
2021/11/19 01:36:19;;;;;;;21.50;12.18;;;128.40;1920.00;;;;;;5056202;28;20485;-57
2021/11/19 01:38:47;;;;;;;17.45;11.05;;;128.40;1945.60;;;;;;5056360;28;20025;-58
2021/11/19 01:41:42;;;;;;;17.33;11.52;;;128.30;1971.20;;;;;;5055979;28;20017;-57
2021/11/19 01:44:22;;;;;;;21.20;12.63;;;128.30;1945.60;;;;;;5055740;28;20356;-58
2021/11/19 01:46:51;;;;;;;22.42;13.27;;;128.40;2022.40;;;;;;5055945;28;20108;-58
2021/11/19 01:49:17;;;;;;;21.40;13.90;;;128.60;2176.00;;;;;;5056132;28;20470;-58
2021/11/19 01:52:12;;;;;;;20.60;12.60;;;128.70;2124.80;;;;;;5055344;28;20021;-58
2021/11/19 01:54:45;;;;;;;19.00;12.18;;;128.90;2022.40;;;;;;5054791;28;20048;-58
2021/11/19 01:57:32;;;;;;;20.77;12.55;;;128.90;1945.60;;;;;;5055712;28;20025;-58
2021/11/19 02:00:22;;;;;;;22.10;12.27;;;153.60;1868.80;;;;;;5055681;28;20189;-57
2021/11/19 02:02:52;;;;;;;22.85;13.10;;;128.70;1868.80;;;;;;5055462;28;20025;-58
2021/11/19 02:05:27;;;;;;;22.35;12.23;;;128.60;1945.60;;;;;;5055520;28;20032;-57
2021/11/19 02:07:57;;;;;;;20.42;13.02;;;128.50;1920.00;;;;;;5055590;28;20025;-57
2021/11/19 02:10:25;;;;;;;22.80;13.63;;;128.40;1920.00;;;;;;5055443;28;20063;-57
2021/11/19 02:13:06;;;;;;;21.40;13.43;;;128.20;1920.00;;;;;;5055694;28;20110;-57
2021/11/19 02:15:37;;;;;;;21.88;13.88;;;128.10;1920.00;;;;;;5055453;28;20035;-57
2021/11/19 02:18:27;;;;;;;20.92;12.45;;;128.10;1945.60;;;;;;5055384;28;20033;-58
2021/11/19 02:20:58;;;;;;;23.05;13.10;;;128.10;1945.60;;;;;;5055221;28;20025;-57
2021/11/19 02:23:31;;;;;;;25.83;14.15;;;128.10;2022.40;;;;;;5055346;28;20105;-57
2021/11/19 02:26:05;;;;;;;22.10;13.75;;;128.30;2099.20;;;;;;5055141;28;20033;-57
2021/11/19 02:28:36;;;;;;;26.80;13.48;;;128.40;2124.80;;;;;;5054963;28;20025;-57
2021/11/19 02:31:06;;;;;;;21.70;14.00;;;128.50;2022.40;;;;;;5054929;28;20033;-58
2021/11/19 02:33:33;;;;;;;23.63;15.05;;;128.70;1945.60;;;;;;5054927;28;20185;-57
2021/11/19 02:36:06;;;;;;;23.55;14.38;;;128.70;1920.00;;;;;;5055157;28;20139;-58
2021/11/19 02:38:47;;;;;;;22.90;14.60;;;128.70;1868.80;;;;;;5054144;28;20056;-57
2021/11/19 02:41:15;;;;;;;26.63;14.73;;;128.50;1920.00;;;;;;5054986;28;20036;-57
2021/11/19 02:43:48;;;;;;;19.38;13.13;;;128.30;1945.60;;;;;;5054882;28;20025;-58
2021/11/19 02:46:43;;;;;;;20.83;12.68;;;128.30;1945.60;;;;;;5054766;28;20028;-57
2021/11/19 02:49:09;;;;;;;20.02;13.13;;;128.20;1920.00;;;;;;5053932;28;20041;-58
2021/11/19 02:51:36;;;;;;;22.42;12.57;;;128.20;1920.00;;;;;;5054652;28;20021;-57
2021/11/19 02:54:07;;;;;;;23.40;12.82;;;128.00;1920.00;;;;;;5054486;28;20493;-58
2021/11/19 02:56:33;;;;;;;19.55;12.23;;;103.30;1894.40;;;;;;5054537;28;20029;-58
2021/11/19 02:59:00;;;;;;;87.78;17.98;;;128.10;1971.20;;;;;;5054536;28;20425;-58
2021/11/19 03:01:31;;;;;;;110.10;20.77;;;128.30;2124.80;;;;;;5054323;28;20049;-57
2021/11/19 03:04:03;;;;;;;29.67;14.98;;;128.40;2252.80;;;;;;5054266;28;20536;-57
2021/11/19 03:06:33;;;;;;;22.75;13.98;;;128.60;2099.20;;;;;;5054476;28;20047;-57
2021/11/19 03:08:59;;;;;;;20.95;13.20;;;128.70;1996.80;;;;;;5053099;28;20043;-58
2021/11/19 03:11:25;;;;;;;20.23;12.73;;;128.80;1945.60;;;;;;5054905;28;20136;-58
2021/11/19 03:13:51;;;;;;;22.63;13.57;;;128.90;1868.80;;;;;;5054288;28;20037;-58
2021/11/19 03:16:17;;;;;;;23.15;14.20;;;128.60;1894.40;;;;;;5054125;28;20021;-58
2021/11/19 03:18:43;;;;;;;22.83;13.85;;;128.50;1945.60;;;;;;5054147;28;20021;-57
2021/11/19 03:21:15;;;;;;;19.75;12.43;;;128.60;1945.60;;;;;;5053829;28;20111;-57
2021/11/19 03:23:41;;;;;;;24.45;13.32;;;128.60;1920.00;;;;;;5053934;28;20029;-57
2021/11/19 03:26:07;;;;;;;21.08;13.05;;;128.50;1920.00;;;;;;5053947;28;20112;-58
2021/11/19 03:28:34;;;;;;;26.65;13.60;;;128.50;1920.00;;;;;;5054164;28;20425;-57
2021/11/19 03:31:07;;;;;;;21.80;13.15;;;128.50;1920.00;;;;;;5054122;28;20025;-57
2021/11/19 03:33:37;;;;;;;22.67;14.02;;;128.50;1945.60;;;;;;5053851;28;20040;-57
2021/11/19 03:36:05;;;;;;;163.80;21.67;;;128.40;1996.80;;;;;;5053838;28;20476;-57
2021/11/19 03:38:33;;;;;;;62.03;18.35;;;128.60;2176.00;;;;;;5054027;28;20160;-57
2021/11/19 03:41:00;;;;;;;23.23;14.73;;;128.70;2252.80;;;;;;5053539;28;20390;-57
2021/11/19 03:43:31;;;;;;;21.02;12.70;;;128.90;2073.60;;;;;;5053668;28;20093;-58
2021/11/19 03:46:01;;;;;;;24.75;12.90;;;153.60;1996.80;;;;;;5053874;28;20383;-58
2021/11/19 03:48:28;;;;;;;20.77;12.75;;;153.70;1945.60;;;;;;5053606;28;20040;-57
2021/11/19 03:50:58;;;;;;;18.95;12.13;;;153.70;1894.40;;;;;;5053686;28;20025;-57
2021/11/19 03:53:25;;;;;;;21.33;13.38;;;153.60;1868.80;;;;;;5053267;28;20052;-57
2021/11/19 03:55:55;;;;;;;20.95;12.93;;;128.70;1945.60;;;;;;5053539;28;20025;-58
2021/11/19 03:58:24;;;;;;;23.70;14.25;;;128.70;1945.60;;;;;;5053694;28;20025;-57
2021/11/19 04:00:56;;;;;;;18.70;13.05;;;128.70;1945.60;;;;;;5053781;28;20029;-57
2021/11/19 04:03:22;;;;;;;23.25;13.35;;;128.60;1920.00;;;;;;5053670;28;20057;-57
2021/11/19 04:05:48;;;;;;;21.45;13.90;;;128.60;1920.00;;;;;;5053450;28;20409;-57
2021/11/19 04:08:15;;;;;;;22.13;12.98;;;128.50;1945.60;;;;;;5053700;28;20021;-58
2021/11/19 04:10:42;;;;;;;22.38;13.43;;;128.50;1945.60;;;;;;5053284;28;20028;-57
2021/11/19 04:13:08;;;;;;;36.45;15.35;;;128.50;1971.20;;;;;;5053756;28;20075;-57
2021/11/19 04:15:39;;;;;;;24.48;13.68;;;128.70;2048.00;;;;;;5053446;28;20078;-57
2021/11/19 04:18:05;;;;;;;29.65;14.93;;;128.80;1996.80;;;;;;5053760;28;20066;-58
2021/11/19 04:20:31;;;;;;;26.65;15.85;;;128.90;1996.80;;;;;;5053360;28;20078;-57
2021/11/19 04:22:58;;;;;;;37.92;14.52;;;153.60;2048.00;;;;;;5053482;28;20425;-58
2021/11/19 04:25:25;;;;;;;31.63;13.38;;;153.70;2048.00;;;;;;5053663;28;20017;-59
2021/11/19 04:27:52;;;;;;;36.72;19.17;;;153.90;1996.80;;;;;;5053212;28;20036;-57
2021/11/19 04:30:24;;;;;;;34.42;19.35;;;153.90;1971.20;;;;;;5053285;28;20025;-57
2021/11/19 04:32:50;;;;;;;28.17;16.13;;;153.90;1971.20;;;;;;5053164;28;20039;-57
2021/11/19 04:35:17;;;;;;;29.08;19.20;;;153.80;1971.20;;;;;;5053084;28;20033;-58
2021/11/19 04:37:43;;;;;;;30.65;18.63;;;153.90;1971.20;;;;;;5053404;28;20466;-58
2021/11/19 04:40:10;;;;;;;27.83;17.10;;;154.00;1971.20;;;;;;5053312;28;20028;-57
2021/11/19 04:42:37;;;;;;;30.27;17.35;;;154.00;1971.20;;;;;;5053395;28;20116;-58
2021/11/19 04:45:05;;;;;;;26.55;17.55;;;154.10;1945.60;;;;;;5053100;28;20475;-58
2021/11/19 04:47:31;;;;;;;36.60;19.98;;;154.10;1945.60;;;;;;5052917;28;20036;-57
2021/11/19 04:49:57;;;;;;;33.85;19.98;;;154.00;1945.60;;;;;;5053171;28;20025;-58
2021/11/19 04:52:23;;;;;;;36.78;20.05;;;154.00;1945.60;;;;;;5052706;28;20488;-57
2021/11/19 04:54:49;;;;;;;33.78;17.67;;;154.00;1945.60;;;;;;5052912;28;20486;-57
2021/11/19 04:57:16;;;;;;;30.75;17.92;;;154.10;1945.60;;;;;;5053008;28;20083;-57
2021/11/19 04:59:42;;;;;;;27.02;16.75;;;154.10;1945.60;;;;;;5053177;28;20108;-57
2021/11/19 05:02:12;;;;;;;25.35;16.23;;;154.20;1945.60;;;;;;5056138;28;20108;-58
2021/11/19 05:04:38;;;;;;;27.30;17.08;;;154.20;1945.60;;;;;;5056560;28;20036;-57
2021/11/19 05:07:04;;;;;;;25.17;16.08;;;154.30;1920.00;;;;;;5056703;28;20031;-58
2021/11/19 05:09:30;;;;;;;26.13;15.73;;;154.30;1920.00;;;;;;5056411;28;20052;-58
2021/11/19 05:12:18;;;;;;;30.17;17.40;;;154.40;1920.00;;;;;;5056218;28;20017;-57
2021/11/19 05:14:44;;;;;;;22.45;15.65;;;154.30;1920.00;;;;;;5056436;28;20037;-58
2021/11/19 05:17:11;;;;;;;28.52;16.80;;;154.30;1920.00;;;;;;5056484;28;20036;-57
2021/11/19 05:19:37;;;;;;;24.60;15.38;;;154.30;1920.00;;;;;;5056273;28;20021;-57
2021/11/19 05:22:04;;;;;;;25.30;16.48;;;154.30;1920.00;;;;;;5056174;28;20025;-57
2021/11/19 05:24:30;;;;;;;28.38;17.92;;;154.40;1894.40;;;;;;5056313;28;20113;-58
2021/11/19 05:26:56;;;;;;;26.73;16.85;;;154.50;1894.40;;;;;;5056148;28;20032;-57
2021/11/19 05:29:21;;;;;;;32.35;19.20;;;154.50;1894.40;;;;;;5056154;28;20037;-58
2021/11/19 05:31:48;;;;;;;38.63;22.67;;;154.40;1894.40;;;;;;5056198;28;20532;-58
2021/11/19 05:34:16;;;;;;;34.72;23.23;;;154.30;1920.00;;;;;;5055815;28;20124;-57
2021/11/19 05:36:44;;;;;;;38.28;21.05;;;154.20;1945.60;;;;;;5056117;28;20036;-58
2021/11/19 05:39:09;;;;;;;34.17;19.88;;;154.20;1945.60;;;;;;5055913;28;20021;-58
2021/11/19 05:41:36;;;;;;;64.40;40.45;;;154.20;1920.00;;;;;;5056172;28;20024;-57
2021/11/19 05:44:03;;;;;;;167.27;109.85;;;154.30;1920.00;;;;;;5055836;28;20033;-58
2021/11/19 05:46:32;;;;;;;209.35;134.00;;;154.20;1920.00;;;;;;5055714;28;20031;-58
2021/11/19 05:48:59;;;;;;;229.27;139.40;;;154.10;1945.60;;;;;;5055785;28;20048;-57
2021/11/19 05:51:28;;;;;;;311.27;185.32;;;154.10;1945.60;;;;;;5055755;28;20032;-57
2021/11/19 05:53:54;;;;;;;265.92;158.60;;;154.00;1971.20;;;;;;5055315;28;20049;-58
2021/11/19 05:56:22;;;;;;;169.18;107.63;;;154.00;1971.20;;;;;;5055599;28;20036;-57
2021/11/19 05:58:48;;;;;;;97.60;61.38;;;154.00;1971.20;;;;;;5055580;28;20378;-58
2021/11/19 06:01:17;;;;;;;105.97;65.85;;;154.00;1971.20;;;;;;5055339;28;20122;-57
2021/11/19 06:03:45;;;;;;;69.93;45.13;;;154.00;1971.20;;;;;;5055410;28;20021;-57
2021/11/19 06:06:11;;;;;;;68.85;43.65;;;154.10;1971.20;;;;;;5055329;28;20129;-57
2021/11/19 06:08:39;;;;;;;57.28;32.35;;;154.10;1971.20;;;;;;5055165;28;20036;-58
2021/11/19 06:11:13;;;;;;;52.08;31.98;;;154.10;1971.20;;;;;;5055471;28;20060;-57
2021/11/19 06:13:45;;;;;;;42.47;23.80;;;154.10;1971.20;;;;;;5055488;28;20116;-58
2021/11/19 06:16:18;;;;;;;37.90;24.50;;;154.20;1971.20;;;;;;5055296;28;20028;-58
2021/11/19 06:18:49;;;;;;;39.15;22.67;;;154.30;1971.20;;;;;;5055121;28;20021;-57
2021/11/19 06:21:22;;;;;;;42.17;24.23;;;154.40;1945.60;;;;;;5055236;28;20047;-58
2021/11/19 06:24:07;;;;;;;43.58;25.45;;;154.50;1971.20;;;;;;5054952;28;20053;-59
2021/11/19 06:26:34;;;;;;;38.05;23.60;;;154.50;1945.60;;;;;;5053968;28;20021;-58
2021/11/19 06:29:04;;;;;;;41.17;25.05;;;154.50;1945.60;;;;;;5054638;28;20079;-58
2021/11/19 06:31:33;;;;;;;42.55;25.20;;;154.50;1971.20;;;;;;5054870;28;20116;-58
2021/11/19 06:33:59;;;;;;;36.97;23.25;;;179.20;1971.20;;;;;;5054533;28;20037;-58
2021/11/19 06:36:25;;;;;;;32.47;20.25;;;179.30;1945.60;;;;;;5054866;28;20036;-57
2021/11/19 06:38:51;;;;;;;31.52;19.50;;;179.30;1945.60;;;;;;5054687;28;20459;-57
2021/11/19 06:41:19;;;;;;;39.20;21.00;;;179.40;1945.60;;;;;;5054800;28;20374;-57
2021/11/19 06:43:45;;;;;;;34.25;19.23;;;179.40;1945.60;;;;;;5054750;28;20037;-57
2021/11/19 06:46:14;;;;;;;32.38;19.33;;;179.30;1945.60;;;;;;5054838;28;20063;-57
2021/11/19 06:48:40;;;;;;;322.38;146.02;;;179.40;1945.60;;;;;;5054488;28;20115;-57
2021/11/19 06:51:06;;;;;;;444.60;234.93;;;179.40;1945.60;;;;;;5054295;28;20505;-56
2021/11/19 06:53:34;;;;;;;383.83;223.80;;;179.40;1945.60;;;;;;5053684;28;20056;-57
2021/11/19 06:56:00;;;;;;;256.95;157.02;;;179.40;1971.20;;;;;;5052936;28;20037;-58
2021/11/19 06:58:26;;;;;;;190.38;120.43;;;179.50;1971.20;;;;;;5053751;28;20049;-56
2021/11/19 07:00:54;;;;;;;107.78;69.32;;;179.50;1971.20;;;;;;5053661;28;20508;-56
2021/11/19 07:03:21;;;;;;;63.35;37.92;;;179.50;1971.20;;;;;;5053915;28;20099;-57
2021/11/19 07:05:47;;;;;;;52.97;34.78;;;179.50;1996.80;;;;;;5053772;28;20017;-57
2021/11/19 07:08:14;;;;;;;50.50;32.85;;;179.50;2022.40;;;;;;5053481;28;20019;-57
2021/11/19 07:10:43;;;;;;;49.05;29.00;;;179.50;2022.40;;;;;;5053290;28;20024;-57
2021/11/19 07:13:11;;;;;;;37.33;24.95;;;179.60;1996.80;;;;;;5053567;28;20503;-57
2021/11/19 07:15:37;;;;;;;35.95;21.30;;;179.70;2022.40;;;;;;5050512;28;20541;-57
2021/11/19 07:18:03;;;;;;;33.05;20.50;;;179.70;2022.40;;;;;;5053441;28;20537;-57
2021/11/19 07:20:30;;;;;;;39.72;22.00;;;179.80;1996.80;;;;;;5053627;28;20063;-59
2021/11/19 07:22:58;;;;;;;36.17;21.05;;;179.80;1996.80;;;;;;5053294;28;20025;-58
2021/11/19 07:25:25;;;;;;;36.13;23.42;;;179.80;1996.80;;;;;;5054058;28;20129;-58
2021/11/19 07:27:54;;;;;;;40.00;25.27;;;179.80;2022.40;;;;;;5053281;28;20082;-59
2021/11/19 07:30:23;;;;;;;39.30;26.20;;;179.80;2022.40;;;;;;5053676;28;20494;-60
2021/11/19 07:32:50;;;;;;;51.53;33.92;;;179.80;2022.40;;;;;;5053581;28;20112;-58
2021/11/19 07:35:16;;;;;;;44.72;28.25;;;179.80;2022.40;;;;;;5053667;28;20090;-58
2021/11/19 07:37:42;;;;;;;38.10;25.90;;;179.90;2022.40;;;;;;5052982;28;20119;-60
2021/11/19 07:40:10;;;;;;;34.00;21.75;;;180.00;2022.40;;;;;;5053869;28;20534;-60
2021/11/19 07:42:37;;;;;;;30.27;21.13;;;180.10;2022.40;;;;;;5053387;28;20033;-60
2021/11/19 07:45:05;;;;;;;30.30;19.55;;;204.80;1996.80;;;;;;5053649;28;20029;-60
2021/11/19 07:47:30;;;;;;;32.13;16.33;;;204.80;1996.80;;;;;;5053445;28;20036;-60
2021/11/19 07:49:56;;;;;;;31.92;18.02;;;204.80;2022.40;;;;;;5053451;28;20072;-60
2021/11/19 07:52:22;;;;;;;29.77;19.05;;;204.90;1996.80;;;;;;5053599;28;20024;-60
2021/11/19 07:54:48;;;;;;;26.95;17.42;;;205.00;2022.40;;;;;;5053467;28;20040;-60
2021/11/19 07:57:13;;;;;;;40.72;19.80;;;205.00;2022.40;;;;;;5053637;28;20021;-60
2021/11/19 07:59:39;;;;;;;38.85;21.00;;;205.00;2022.40;;;;;;5053440;28;20347;-60
2021/11/19 08:02:06;;;;;;;43.83;21.80;;;205.10;1996.80;;;;;;5053117;28;20104;-60
2021/11/19 08:04:34;;;;;;;34.63;19.48;;;205.20;2022.40;;;;;;5052974;28;20478;-60
2021/11/19 08:07:00;;;;;;;36.40;18.30;;;205.20;2022.40;;;;;;5053423;28;20032;-60
2021/11/19 08:09:27;;;;;;;27.63;17.83;;;205.30;2022.40;;;;;;5053459;28;20099;-60
2021/11/19 08:11:53;;;;;;;26.25;17.48;;;205.40;1996.80;;;;;;5052859;28;20163;-60
2021/11/19 08:14:20;;;;;;;26.20;17.38;;;205.40;2022.40;;;;;;5053448;28;20048;-60
2021/11/19 08:16:47;;;;;;;35.95;20.52;;;205.50;2022.40;;;;;;5053299;28;20025;-60
2021/11/19 08:19:25;;;;;;;36.75;22.17;;;205.60;2022.40;;;;;;5053163;28;20029;-60
2021/11/19 08:21:53;;;;;;;39.47;22.48;;;205.70;1996.80;;;;;;5053283;28;20462;-60
2021/11/19 08:24:20;;;;;;;47.03;25.60;;;205.70;2022.40;;;;;;5053330;28;20410;-60
2021/11/19 08:26:49;;;;;;;45.40;24.83;;;230.40;2022.40;;;;;;5053205;28;20021;-60
2021/11/19 08:29:22;;;;;;;51.38;27.02;;;230.40;2022.40;;;;;;5053477;28;20559;-60
2021/11/19 08:31:48;;;;;;;46.10;25.48;;;230.50;2022.40;;;;;;5053296;28;20021;-60
2021/11/19 08:34:14;;;;;;;40.72;24.23;;;230.50;1996.80;;;;;;5051871;28;20394;-60
2021/11/19 08:36:41;;;;;;;39.25;22.52;;;230.60;1996.80;;;;;;5055894;28;20079;-60
2021/11/19 08:39:10;;;;;;;35.50;20.95;;;230.70;1996.80;;;;;;5057214;28;20032;-60
2021/11/19 08:41:36;;;;;;;38.83;22.63;;;230.70;1971.20;;;;;;5057035;28;20021;-60
2021/11/19 08:44:02;;;;;;;38.33;22.30;;;230.80;1996.80;;;;;;5057166;28;20025;-60
2021/11/19 08:46:35;;;;;;;48.08;27.10;;;230.90;1996.80;;;;;;5056307;28;20108;-60
2021/11/19 08:49:04;;;;;;;38.63;24.15;;;230.90;1996.80;;;;;;5056944;28;20031;-60
2021/11/19 08:51:31;;;;;;;40.85;23.80;;;231.00;1996.80;;;;;;5056932;28;20029;-60
2021/11/19 08:54:00;;;;;;;37.90;22.83;;;231.00;1996.80;;;;;;5056505;28;20049;-60
2021/11/19 08:56:29;;;;;;;33.65;21.85;;;231.10;1971.20;;;;;;5056884;28;20131;-60
2021/11/19 08:58:54;;;;;;;39.22;23.00;;;231.20;1996.80;;;;;;5056852;28;20108;-60
2021/11/19 09:01:21;;;;;;;39.00;22.00;;;231.20;1996.80;;;;;;5056713;28;20514;-60
2021/11/19 09:03:47;;;;;;;36.00;23.42;;;231.30;1971.20;;;;;;5056721;28;20107;-60
2021/11/19 09:06:21;;;;;;;40.75;23.73;;;256.00;1971.20;;;;;;5056665;28;20017;-60
2021/11/19 09:08:48;;;;;;;49.70;27.85;;;256.00;1971.20;;;;;;5056444;28;20029;-60
2021/11/19 09:11:19;;;;;;;52.25;28.98;;;256.10;1971.20;;;;;;5056517;28;20033;-60
2021/11/19 09:13:47;;;;;;;51.35;26.10;;;256.20;1945.60;;;;;;5056517;28;20160;-60
2021/11/19 09:16:14;;;;;;;49.10;26.35;;;256.20;1945.60;;;;;;5056528;28;20052;-60
2021/11/19 09:19:22;;;;;;;69.85;36.85;;;256.30;1945.60;;;;;;5056427;28;20029;-60
2021/11/19 09:22:16;;;;;;;84.47;41.58;;;256.40;1920.00;;;;;;5056538;28;20360;-60
2021/11/19 09:24:42;;;;;;;108.03;56.70;;;256.40;1920.00;;;;;;5056337;28;20382;-60
2021/11/19 09:27:17;;;;;;;86.75;48.53;;;256.50;1894.40;;;;;;5056259;28;20029;-60
2021/11/19 09:29:57;;;;;;;58.38;33.28;;;256.50;1868.80;;;;;;5055989;28;20032;-60
2021/11/19 09:32:24;;;;;;;41.45;24.13;;;256.50;1894.40;;;;;;5056246;28;20025;-60
2021/11/19 09:34:57;;;;;;;48.90;27.10;;;256.50;1894.40;;;;;;5055875;28;20037;-60
2021/11/19 09:37:24;;;;;;;55.95;30.20;;;256.60;1868.80;;;;;;5056140;28;20021;-60
2021/11/19 09:39:51;;;;;;;47.67;25.35;;;256.60;1868.80;;;;;;5056024;28;20056;-60
2021/11/19 09:42:42;;;;;;;43.38;25.30;;;256.60;1868.80;;;;;;5056071;28;20075;-60
2021/11/19 09:45:31;;;;;;;39.28;23.05;;;256.70;1868.80;;;;;;5055821;28;20040;-60
2021/11/19 09:48:20;;;;;;;41.45;21.95;;;256.70;1843.20;;;;;;5055720;28;20029;-60
2021/11/19 09:51:04;;;;;;;78.60;41.22;;;256.80;1843.20;;;;;;5055921;28;20095;-60
2021/11/19 09:54:01;;;;;;;110.65;55.67;;;256.80;1843.20;;;;;;5055465;28;20057;-60
2021/11/19 09:56:46;;;;;;;81.07;41.95;;;256.80;1868.80;;;;;;5055579;28;20067;-61
2021/11/19 09:59:26;;;;;;;50.67;28.23;;;256.80;1868.80;;;;;;5055500;28;20014;-60
2021/11/19 10:02:01;;;;;;;51.90;28.00;;;256.80;1843.20;;;;;;5055466;28;20029;-60
2021/11/19 10:04:36;;;;;;;47.58;24.45;;;256.90;1843.20;;;;;;5055594;28;20035;-60
2021/11/19 10:07:11;;;;;;;33.67;18.45;;;256.90;1843.20;;;;;;5054354;28;20032;-60
2021/11/19 10:09:45;;;;;;;26.52;16.30;;;281.60;1868.80;;;;;;5055331;28;20532;-60
2021/11/19 10:12:24;;;;;;;30.55;18.48;;;281.60;1868.80;;;;;;5055537;28;20052;-60
2021/11/19 10:14:59;;;;;;;40.30;21.85;;;281.70;1843.20;;;;;;5054972;28;20114;-60
2021/11/19 10:17:48;;;;;;;48.13;24.80;;;281.70;1843.20;;;;;;5055170;28;20021;-60
2021/11/19 10:20:38;;;;;;;46.00;25.10;;;281.70;1817.60;;;;;;5055076;28;20028;-60
2021/11/19 10:23:20;;;;;;;49.25;26.52;;;281.70;1843.20;;;;;;5055568;28;20394;-60
2021/11/19 10:25:53;;;;;;;56.25;30.98;;;281.70;1843.20;;;;;;5053816;28;20033;-60
2021/11/19 10:28:32;;;;;;;46.35;25.80;;;281.70;1843.20;;;;;;5054641;28;20037;-60
2021/11/19 10:31:00;;;;;;;38.63;23.05;;;281.80;1843.20;;;;;;5054972;28;20021;-60
2021/11/19 10:33:58;;;;;;;48.25;26.90;;;281.80;1843.20;;;;;;5054924;28;20033;-59
2021/11/19 10:36:32;;;;;;;44.88;24.88;;;281.80;1817.60;;;;;;5055042;28;20027;-59
2021/11/19 10:39:32;;;;;;;37.95;21.27;;;281.80;1817.60;;;;;;5054776;28;20028;-59
2021/11/19 10:42:22;;;;;;;41.75;23.50;;;281.80;1792.00;;;;;;5054680;28;20032;-60
2021/11/19 10:44:56;;;;;;;43.63;23.70;;;281.80;1792.00;;;;;;5054889;28;20021;-60
2021/11/19 10:47:44;;;;;;;54.85;29.55;;;281.90;1792.00;;;;;;5054885;28;20052;-58
2021/11/19 10:50:32;;;;;;;54.13;27.98;;;281.90;1792.00;;;;;;5054551;28;20100;-61
2021/11/19 10:53:37;;;;;;;43.28;24.63;;;282.00;1792.00;;;;;;5054129;28;20116;-58
2021/11/19 10:56:45;;;;;;;50.70;25.25;;;282.00;1792.00;;;;;;5054636;28;20072;-58
2021/11/19 10:59:22;;;;;;;35.45;18.50;;;282.00;1766.40;;;;;;5011676;28;20080;-61
2021/11/19 11:01:57;;;;;;;31.50;18.20;;;282.10;1766.40;;;;;;5012618;28;20042;-57
2021/11/19 11:05:00;;;;;;;34.88;20.33;;;282.10;1766.40;;;;;;5012318;28;20022;-61
2021/11/19 11:07:35;;;;;;;37.90;21.85;;;282.10;1766.40;;;;;;5012555;28;20104;-61
2021/11/19 11:10:07;;;;;;;41.65;24.02;;;282.20;1792.00;;;;;;5012563;28;20459;-61
2021/11/19 11:12:44;;;;;;;34.45;20.95;;;282.10;1792.00;;;;;;5012312;28;20418;-60
2021/11/19 11:15:24;;;;;;;31.23;17.10;;;282.20;1766.40;;;;;;5011913;28;20455;-60
2021/11/19 11:18:09;;;;;;;26.27;17.33;;;282.20;1766.40;;;;;;5010045;28;20018;-59
2021/11/19 11:20:36;;;;;;;35.83;20.63;;;282.20;1766.40;;;;;;5010595;28;20467;-60
2021/11/19 11:23:26;;;;;;;34.33;20.02;;;282.20;1766.40;;;;;;5011636;28;20034;-57
2021/11/19 11:26:12;;;;;;;34.78;20.15;;;282.20;1766.40;;;;;;4972697;28;20411;-58
2021/11/19 11:28:40;;;;;;;29.52;16.85;;;282.30;1766.40;;;;;;4972523;28;20041;-57
2021/11/19 11:32:04;;;;;;;31.48;18.13;;;282.30;1766.40;;;;;;4970366;28;20039;-59
2021/11/19 11:34:44;;;;;;;31.48;18.40;;;282.30;1740.80;;;;;;4947251;28;20168;-59
2021/11/19 11:37:13;;;;;;;27.35;15.50;;;282.30;1740.80;;;;;;4970163;28;20097;-57
2021/11/19 11:39:59;;;;;;;30.98;17.92;;;282.30;1766.40;;;;;;4972387;28;20030;-58
2021/11/19 11:42:38;;;;;;;38.60;22.35;;;282.30;1766.40;;;;;;4952124;29;20051;-60
2021/11/19 11:45:25;;;;;;;38.13;20.23;;;282.30;1766.40;;;;;;4949339;29;20401;-57
2021/11/19 11:47:50;;;;;;;29.00;17.60;;;282.40;1740.80;;;;;;4952034;29;20043;-59
2021/11/19 11:50:37;;;;;;;24.98;15.50;;;282.30;1740.80;;;;;;4951962;29;20106;-60
2021/11/19 11:53:15;;;;;;;29.65;17.70;;;282.40;1740.80;;;;;;4951898;29;20130;-58
2021/11/19 11:56:05;;;;;;;28.02;16.48;;;282.40;1740.80;;;;;;4950889;28;20093;-57
2021/11/19 11:59:06;;;;;;;29.70;18.85;;;282.40;1740.80;;;;;;4943101;29;20102;-60
2021/11/19 12:01:38;;;;;;;26.02;18.10;;;282.40;1740.80;;;;;;4888606;29;20067;-57
2021/11/19 12:04:29;;;;;;;31.05;18.80;;;282.50;1740.80;;;;;;4866401;29;20057;-58
2021/11/19 12:07:25;;;;;;;23.23;15.85;;;282.50;1715.20;;;;;;4866655;29;20037;-59
2021/11/19 12:10:14;;;;;;;29.50;15.10;;;282.50;1715.20;;;;;;4888479;29;20044;-58
2021/11/19 12:13:00;;;;;;;26.25;14.75;;;282.50;1715.20;;;;;;4934050;29;20494;-58
2021/11/19 12:15:41;;;;;;;24.90;15.13;;;282.50;1715.20;;;;;;4938071;29;20039;-58
2021/11/19 12:18:18;;;;;;;28.40;15.32;;;282.50;1715.20;;;;;;4938213;29;20039;-60
2021/11/19 12:21:02;;;;;;;22.58;15.27;;;282.50;1715.20;;;;;;4995570;28;20439;-60
2021/11/19 12:23:56;;;;;;;27.30;14.60;;;307.20;1740.80;;;;;;4996174;28;20046;-60